Disclaimer

Please do not use the information listed here in-flight or in-navigation, as they are not provided to us by the airports but are provided by volunteers, so they might be outdated.

Search


Regions


Airport information page

No radio frequency information is available.

Airport informations:
Latitude: 13° 37' 56.97" N
Longitude: 079° 32' 35.72" E
Elevation: 350 feet - 107 meters
Operating hours: N/A
Operating agency: Civil government, landing fees and diplomatic clearance may be required
Timezone: UTC+5:30
Fuel: Jet A1+, Jet A1 with icing inhibitor.

Runway information:
08/26 - 7500 x 148 feet< - >2286 x 45 meters

Recent METARs:
VOTP 180630Z 07006KT 6000 FEW015 SCT020 FEW030CB 32/24 Q1012
VOTP 180700Z 07006KT 6000 FEW015 SCT020 FEW030CB 32/24 Q1011
VOTP 180730Z 07006KT 7000 SCT015 FEW025CB 32/24 Q1011

Airport on the map: